トゥールーズ の空港の天気 - METARとTAF

トゥールーズ・ブラニャック空港 ( LFBO / TLS ) - フランス トゥールーズ
飛行場実況気象(Metar)
観測時間09/25 22:30 CEST (09/25 20:30 UTC)
風向・風速北西 2m/s
視程10km以上
天気現象
なし
気温14℃
湿度72%
気圧1017hPa
METARLFBO 252030Z AUTO 31004KT CAVOK 14/09 Q1017 NOSIG
過去の天気等 Google飛行場航空写真 Wunderground天気予報

過去48時間のMETAR

飛行場予報(TAF)
発表時間: 9/25 19:00 CEST (9/25 17:00 UTC)
予報対象時間: 25日20時 CEST ~ 27日2時 CEST
風向・風速北西 5m/s
視程10km以上
なし
25日20時 CEST ~ 25日22時 CEST に徐々に
風向・風速不定 2m/s
26日5時 CEST ~ 26日9時 CEST に 確率 30% で一時的に
視程4000m
天気現象もや
26日10時 CEST ~ 26日12時 CEST に徐々に
風向・風速西北西 5m/s
全天の4割程度の雲 雲底高度 1220m
26日20時 CEST ~ 27日2時 CEST に一時的に
風向・風速西 8m/s 瞬間風速 13m/s
天気現象弱いしゅう雨
全天の4割程度の塔状積雲 雲底高度 910m
全天の8割程度の雲 雲底高度 1070m
TAF LFBO 251700Z 2518/2624 31010KT CAVOK
BECMG 2518/2520 VRB03KT
PROB30 TEMPO 2603/2607 4000 BR
BECMG 2608/2610 30010KT SCT040
TEMPO 2618/2624 28015G25KT -SHRA SCT030TCU BKN035